createdAt,value
2023-04-15T00:01:45.215Z,68.18
2023-04-15T00:04:13.096Z,68.22
2023-04-15T00:06:41.324Z,68.31
2023-04-15T00:09:09.359Z,68.23
2023-04-15T00:11:37.069Z,68.07
2023-04-15T00:14:06.314Z,67.83
2023-04-15T00:16:34.210Z,67.78
2023-04-15T00:19:02.359Z,67.75
2023-04-15T00:21:30.620Z,67.80
2023-04-15T00:23:58.590Z,67.68
2023-04-15T00:26:27.064Z,67.61
2023-04-15T00:28:54.880Z,67.54
2023-04-15T00:31:23.391Z,67.71
2023-04-15T00:33:51.668Z,67.76
2023-04-15T00:36:19.553Z,67.81
2023-04-15T00:38:47.454Z,67.82
2023-04-15T00:41:15.560Z,67.56
2023-04-15T00:43:43.518Z,67.52
2023-04-15T00:46:13.721Z,67.47
2023-04-15T00:48:42.630Z,67.43
2023-04-15T00:51:11.477Z,67.28
2023-04-15T00:53:39.346Z,67.20
2023-04-15T00:56:07.712Z,67.13
2023-04-15T00:58:36.300Z,67.16
2023-04-15T01:01:04.513Z,67.24
2023-04-15T01:03:32.660Z,67.11
2023-04-15T01:06:03.599Z,67.06
2023-04-15T01:08:32.287Z,67.12
2023-04-15T01:11:02.257Z,67.02
2023-04-15T01:13:30.606Z,66.79
2023-04-15T01:15:58.605Z,66.92
2023-04-15T01:18:27.545Z,67.26
2023-04-15T01:20:55.408Z,67.28
2023-04-15T01:23:25.344Z,67.34
2023-04-15T01:25:53.744Z,67.32
2023-04-15T01:28:21.623Z,67.40
2023-04-15T01:30:49.996Z,67.55
2023-04-15T01:33:17.980Z,67.70
2023-04-15T01:35:47.334Z,67.82
2023-04-15T01:38:16.292Z,67.73
2023-04-15T01:40:46.536Z,67.84
2023-04-15T01:43:15.406Z,67.90
2023-04-15T01:45:43.742Z,67.94
2023-04-15T01:48:12.409Z,67.87
2023-04-15T01:50:40.395Z,67.93
2023-04-15T01:53:08.835Z,68.08
2023-04-15T01:55:37.160Z,68.13
2023-04-15T01:58:05.119Z,68.18
2023-04-15T02:00:33.042Z,68.30
2023-04-15T02:03:01.022Z,68.38
2023-04-15T02:05:29.221Z,68.27
2023-04-15T02:07:57.362Z,67.85
2023-04-15T02:10:25.168Z,67.70
2023-04-15T02:12:54.222Z,67.72
2023-04-15T02:15:22.782Z,67.64
2023-04-15T02:17:52.902Z,67.46
2023-04-15T02:20:21.438Z,67.43
2023-04-15T02:22:49.726Z,67.38
2023-04-15T02:25:17.878Z,67.33
2023-04-15T02:27:45.718Z,67.28
2023-04-15T02:30:13.643Z,67.14
2023-04-15T02:32:43.861Z,67.17
2023-04-15T02:35:12.517Z,67.02
2023-04-15T02:37:45.891Z,67.07
2023-04-15T02:40:13.959Z,67.00
2023-04-15T02:42:42.822Z,67.06
2023-04-15T02:45:13.215Z,66.96
2023-04-15T02:47:41.711Z,66.98
2023-04-15T02:50:12.656Z,66.99
2023-04-15T02:52:41.940Z,67.16
2023-04-15T02:55:10.625Z,67.21
2023-04-15T02:57:39.329Z,67.36
2023-04-15T03:00:11.799Z,67.44
2023-04-15T03:02:42.353Z,67.59
2023-04-15T03:05:14.376Z,67.55
2023-04-15T03:07:49.259Z,67.68
2023-04-15T03:10:17.288Z,67.76
2023-04-15T03:12:47.258Z,67.78
2023-04-15T03:15:18.655Z,67.90
2023-04-15T03:17:49.662Z,67.91
2023-04-15T03:20:17.610Z,68.08
2023-04-15T03:22:45.472Z,68.29
2023-04-15T03:25:13.766Z,68.47
2023-04-15T03:27:41.976Z,68.58
2023-04-15T03:30:10.241Z,68.53
2023-04-15T03:32:39.027Z,68.52
2023-04-15T03:35:08.332Z,68.53
2023-04-15T03:37:36.035Z,68.43
2023-04-15T03:40:04.066Z,68.23
2023-04-15T03:42:32.191Z,68.21
2023-04-15T03:44:59.960Z,68.30
2023-04-15T03:47:27.940Z,68.46
2023-04-15T03:49:56.096Z,68.52
2023-04-15T03:52:23.895Z,68.56
2023-04-15T03:54:51.690Z,68.56
2023-04-15T03:57:20.000Z,68.74
2023-04-15T03:59:47.790Z,68.73
2023-04-15T04:02:15.935Z,68.85
2023-04-15T04:04:44.010Z,68.95
2023-04-15T04:07:18.039Z,68.99
2023-04-15T04:09:47.306Z,69.01
2023-04-15T04:12:15.661Z,69.20
2023-04-15T04:14:43.449Z,69.37
2023-04-15T04:17:11.803Z,69.43
2023-04-15T04:19:39.788Z,69.40
2023-04-15T04:22:07.573Z,69.60
2023-04-15T04:24:35.477Z,69.69
2023-04-15T04:27:03.653Z,69.61
2023-04-15T04:29:31.600Z,69.77
2023-04-15T04:31:59.610Z,70.00
2023-04-15T04:34:27.585Z,69.99
2023-04-15T04:36:55.902Z,69.79
2023-04-15T04:39:23.917Z,69.82
2023-04-15T04:41:52.493Z,69.84
2023-04-15T04:44:20.522Z,69.75
2023-04-15T04:46:48.306Z,69.57
2023-04-15T04:49:16.035Z,69.40
2023-04-15T04:51:43.819Z,69.19
2023-04-15T04:54:11.869Z,68.93
2023-04-15T04:56:39.971Z,68.73
2023-04-15T04:59:07.871Z,68.72
2023-04-15T05:01:36.057Z,68.80
2023-04-15T05:04:05.355Z,68.66
2023-04-15T05:06:33.473Z,68.66
2023-04-15T05:09:01.974Z,68.77
2023-04-15T05:11:30.263Z,68.85
2023-04-15T05:13:59.941Z,68.77
2023-04-15T05:16:27.821Z,68.69
2023-04-15T05:18:55.783Z,68.76
2023-04-15T05:21:23.877Z,68.71
2023-04-15T05:23:52.135Z,68.49
2023-04-15T05:26:19.925Z,68.28
2023-04-15T05:28:47.983Z,68.20
2023-04-15T05:31:15.948Z,68.11
2023-04-15T05:33:43.885Z,67.88
2023-04-15T05:36:12.206Z,67.76
2023-04-15T05:38:40.110Z,67.23
2023-04-15T05:41:07.898Z,66.63
2023-04-15T05:43:35.727Z,65.84
2023-04-15T05:46:03.681Z,65.00
2023-04-15T05:48:31.841Z,64.83
2023-04-15T05:51:00.157Z,64.48
2023-04-15T05:53:27.937Z,64.36
2023-04-15T05:55:55.914Z,64.26
2023-04-15T05:58:23.684Z,64.49
2023-04-15T06:00:51.661Z,64.83
2023-04-15T06:03:19.753Z,64.80
2023-04-15T06:05:47.551Z,64.92
2023-04-15T06:08:15.617Z,64.69
2023-04-15T06:10:43.416Z,64.12
2023-04-15T06:13:11.208Z,63.54
2023-04-15T06:15:39.089Z,63.45
2023-04-15T06:18:07.001Z,63.13
2023-04-15T06:20:34.869Z,62.82
2023-04-15T06:23:02.985Z,62.76
2023-04-15T06:25:30.939Z,62.05
2023-04-15T06:27:59.375Z,61.66
2023-04-15T06:30:27.240Z,60.70
2023-04-15T06:32:55.262Z,58.89
2023-04-15T06:35:23.197Z,58.21
2023-04-15T06:37:52.009Z,58.06
2023-04-15T06:40:19.842Z,57.70
2023-04-15T06:42:47.640Z,57.03
2023-04-15T06:45:17.833Z,56.51
2023-04-15T06:47:45.781Z,55.38
2023-04-15T06:50:13.757Z,55.44
2023-04-15T06:52:41.657Z,55.51
2023-04-15T06:55:10.149Z,55.16
2023-04-15T06:57:38.010Z,55.71
2023-04-15T07:00:06.438Z,55.52
2023-04-15T07:02:34.463Z,55.49
2023-04-15T07:05:02.806Z,55.26
2023-04-15T07:07:30.891Z,55.12
2023-04-15T07:09:58.788Z,54.74
2023-04-15T07:12:26.557Z,53.97
2023-04-15T07:14:54.545Z,53.76
2023-04-15T07:17:22.377Z,53.70
2023-04-15T07:19:50.233Z,53.46
2023-04-15T07:22:18.400Z,53.82
2023-04-15T07:24:46.738Z,53.42
2023-04-15T07:27:14.514Z,53.32
2023-04-15T07:29:42.327Z,53.02
2023-04-15T07:32:10.880Z,53.11
2023-04-15T07:34:38.757Z,52.50
2023-04-15T07:37:06.554Z,52.59
2023-04-15T07:39:34.292Z,53.19
2023-04-15T07:42:02.631Z,53.74
2023-04-15T07:44:30.656Z,52.95
2023-04-15T07:46:58.800Z,52.62
2023-04-15T07:49:26.560Z,52.64
2023-04-15T07:51:55.217Z,52.84
2023-04-15T07:54:23.074Z,52.04
2023-04-15T07:56:50.902Z,52.40
2023-04-15T07:59:18.687Z,50.98
2023-04-15T08:01:46.723Z,51.22
2023-04-15T08:04:14.823Z,50.54
2023-04-15T08:06:43.667Z,50.82
2023-04-15T08:09:11.450Z,50.37
2023-04-15T08:11:39.229Z,50.90
2023-04-15T08:14:07.169Z,50.11
2023-04-15T08:16:35.355Z,49.56
2023-04-15T08:19:03.979Z,48.83
2023-04-15T08:21:31.965Z,48.02
2023-04-15T08:24:00.574Z,47.34
2023-04-15T08:26:28.365Z,45.79
2023-04-15T08:28:56.572Z,45.89
2023-04-15T08:31:26.906Z,46.64
2023-04-15T08:33:57.068Z,46.37
2023-04-15T08:36:25.008Z,45.95
2023-04-15T08:38:52.817Z,45.73
2023-04-15T08:41:24.559Z,44.76
2023-04-15T08:44:01.514Z,44.63
2023-04-15T08:46:31.269Z,45.24
2023-04-15T08:48:59.182Z,45.16
2023-04-15T08:51:27.232Z,45.39
2023-04-15T08:53:55.511Z,45.46
2023-04-15T08:56:29.524Z,44.26
2023-04-15T08:58:57.917Z,45.37
2023-04-15T09:01:26.570Z,44.88
2023-04-15T09:03:54.990Z,43.93
2023-04-15T09:06:23.379Z,42.17
2023-04-15T09:08:51.929Z,41.89
2023-04-15T09:11:21.656Z,42.12
2023-04-15T09:13:49.885Z,42.69
2023-04-15T09:16:17.779Z,43.36
2023-04-15T09:18:45.684Z,43.76
2023-04-15T09:21:14.663Z,44.23
2023-04-15T09:23:54.263Z,44.81
2023-04-15T09:26:30.808Z,45.16
2023-04-15T09:29:09.539Z,44.20
2023-04-15T09:31:37.865Z,43.38
2023-04-15T09:34:05.965Z,41.07
2023-04-15T09:36:51.821Z,40.40
2023-04-15T09:39:20.038Z,41.24
2023-04-15T09:42:03.873Z,42.29
2023-04-15T09:44:31.781Z,42.04
2023-04-15T09:46:59.787Z,41.65
2023-04-15T09:49:28.389Z,41.60
2023-04-15T09:52:06.023Z,42.07
2023-04-15T09:54:38.209Z,41.65
2023-04-15T09:57:07.381Z,41.86
2023-04-15T09:59:36.134Z,42.79
2023-04-15T10:02:10.082Z,42.33
2023-04-15T10:04:40.109Z,41.75
2023-04-15T10:07:12.398Z,41.23
2023-04-15T10:09:40.288Z,41.55
2023-04-15T10:12:08.940Z,42.33
2023-04-15T10:14:38.732Z,41.38
2023-04-15T10:17:08.327Z,40.78
2023-04-15T10:19:37.635Z,39.87
2023-04-15T10:22:06.952Z,39.41
2023-04-15T10:24:34.924Z,40.28
2023-04-15T10:27:04.332Z,39.37
2023-04-15T10:29:32.548Z,38.83
2023-04-15T10:32:01.244Z,39.72
2023-04-15T10:34:29.724Z,40.60
2023-04-15T10:37:04.379Z,41.21
2023-04-15T10:39:35.038Z,41.31
2023-04-15T10:42:07.581Z,41.75
2023-04-15T10:44:56.785Z,41.60
2023-04-15T10:47:25.802Z,42.30
2023-04-15T10:50:01.115Z,42.15
2023-04-15T10:52:29.423Z,42.00
2023-04-15T10:55:12.280Z,42.00
2023-04-15T10:57:41.017Z,42.45
2023-04-15T11:00:09.083Z,43.34
2023-04-15T11:02:43.565Z,43.75
2023-04-15T11:05:12.063Z,43.69
2023-04-15T11:07:48.911Z,42.34
2023-04-15T11:10:24.528Z,42.34
2023-04-15T11:12:59.959Z,39.57
2023-04-15T11:15:33.039Z,39.41
2023-04-15T11:18:13.070Z,39.78
2023-04-15T11:20:42.125Z,39.47
2023-04-15T11:23:14.364Z,39.63
2023-04-15T11:25:44.319Z,39.84
2023-04-15T11:28:12.969Z,40.50
2023-04-15T11:30:42.242Z,40.77
2023-04-15T11:33:12.366Z,38.61
2023-04-15T11:35:41.302Z,37.91
2023-04-15T11:38:10.120Z,37.34
2023-04-15T11:40:38.593Z,37.49
2023-04-15T11:43:06.479Z,36.86
2023-04-15T11:45:34.927Z,36.67
2023-04-15T11:48:10.878Z,37.12
2023-04-15T11:50:40.895Z,37.31
2023-04-15T11:53:09.867Z,37.78
2023-04-15T11:55:44.789Z,37.78
2023-04-15T11:58:16.396Z,37.79
2023-04-15T12:00:53.089Z,38.44
2023-04-15T12:03:23.305Z,38.38
2023-04-15T12:06:06.350Z,38.62
2023-04-15T12:08:55.939Z,38.50
2023-04-15T12:11:26.849Z,38.71
2023-04-15T12:13:56.722Z,38.02
2023-04-15T12:16:24.963Z,37.38
2023-04-15T12:18:55.904Z,37.96
2023-04-15T12:21:25.242Z,37.81
2023-04-15T12:23:56.903Z,37.93
2023-04-15T12:26:34.248Z,38.56
2023-04-15T12:29:02.612Z,38.31
2023-04-15T12:31:30.774Z,38.77
2023-04-15T12:33:59.423Z,39.53
2023-04-15T12:36:27.734Z,39.13
2023-04-15T12:38:56.107Z,38.54
2023-04-15T12:41:24.535Z,38.59
2023-04-15T12:43:52.575Z,39.04
2023-04-15T12:46:20.570Z,38.38
2023-04-15T12:48:48.360Z,38.53
2023-04-15T12:51:16.213Z,39.44
2023-04-15T12:53:44.080Z,37.39
2023-04-15T12:56:12.304Z,37.18
2023-04-15T12:58:40.041Z,36.80
2023-04-15T13:01:07.916Z,36.43
2023-04-15T13:03:36.025Z,37.38
2023-04-15T13:06:05.102Z,37.47
2023-04-15T13:08:33.252Z,36.88
2023-04-15T13:11:01.498Z,36.24
2023-04-15T13:13:29.588Z,36.54
2023-04-15T13:15:57.740Z,37.49
2023-04-15T13:18:25.801Z,37.75
2023-04-15T13:20:54.541Z,37.29
2023-04-15T13:23:22.228Z,37.61
2023-04-15T13:25:49.954Z,38.45
2023-04-15T13:28:18.358Z,38.48
2023-04-15T13:30:46.083Z,38.56
2023-04-15T13:33:13.988Z,38.65
2023-04-15T13:35:41.952Z,38.18
2023-04-15T13:38:09.764Z,37.78
2023-04-15T13:40:37.939Z,38.11
2023-04-15T13:43:05.985Z,36.76
2023-04-15T13:45:33.790Z,36.33
2023-04-15T13:48:02.769Z,36.12
2023-04-15T13:50:30.663Z,35.91
2023-04-15T13:52:58.385Z,35.65
2023-04-15T13:55:27.117Z,35.84
2023-04-15T13:57:56.510Z,36.74
2023-04-15T14:00:24.579Z,36.72
2023-04-15T14:02:52.521Z,37.22
2023-04-15T14:05:21.196Z,36.95
2023-04-15T14:07:49.059Z,36.56
2023-04-15T14:10:16.778Z,37.41
2023-04-15T14:12:44.586Z,38.03
2023-04-15T14:15:12.696Z,38.51
2023-04-15T14:17:42.380Z,39.25
2023-04-15T14:20:10.652Z,40.26
2023-04-15T14:22:38.519Z,39.65
2023-04-15T14:25:06.670Z,40.06
2023-04-15T14:27:34.940Z,39.87
2023-04-15T14:30:02.875Z,40.11
2023-04-15T14:32:30.764Z,40.20
2023-04-15T14:34:58.831Z,40.34
2023-04-15T14:37:27.197Z,40.33
2023-04-15T14:39:55.038Z,39.92
2023-04-15T14:42:22.724Z,40.01
2023-04-15T14:44:50.661Z,40.49
2023-04-15T14:47:18.756Z,40.96
2023-04-15T14:49:46.686Z,41.80
2023-04-15T14:52:14.602Z,42.58
2023-04-15T14:54:42.647Z,43.29
2023-04-15T14:57:10.464Z,43.90
2023-04-15T14:59:38.270Z,44.25
2023-04-15T15:02:06.471Z,44.26
2023-04-15T15:04:36.157Z,44.80
2023-04-15T15:07:04.143Z,45.45
2023-04-15T15:09:33.924Z,46.00
2023-04-15T15:12:03.099Z,46.00
2023-04-15T15:14:30.868Z,46.13
2023-04-15T15:16:58.780Z,45.99
2023-04-15T15:19:26.614Z,46.23
2023-04-15T15:21:54.353Z,46.21
2023-04-15T15:24:22.541Z,45.51
2023-04-15T15:26:50.535Z,45.25
2023-04-15T15:29:18.306Z,44.68
2023-04-15T15:31:46.788Z,45.28
2023-04-15T15:34:16.187Z,45.17
2023-04-15T15:36:43.902Z,45.46
2023-04-15T15:39:11.704Z,45.64
2023-04-15T15:41:39.544Z,46.26
2023-04-15T15:44:07.322Z,46.84
2023-04-15T15:46:35.268Z,47.08
2023-04-15T15:49:04.470Z,47.33
2023-04-15T15:51:32.909Z,47.57
2023-04-15T15:54:01.033Z,47.75
2023-04-15T15:56:28.890Z,48.10
2023-04-15T15:58:56.614Z,48.15
2023-04-15T16:01:24.494Z,48.32
2023-04-15T16:03:52.624Z,48.42
2023-04-15T16:06:20.768Z,48.44
2023-04-15T16:08:48.818Z,48.37
2023-04-15T16:11:16.661Z,48.19
2023-04-15T16:13:44.573Z,48.29
2023-04-15T16:16:12.944Z,48.46
2023-04-15T16:18:40.601Z,48.73
2023-04-15T16:21:08.500Z,49.06
2023-04-15T16:23:36.904Z,49.17
2023-04-15T16:26:04.885Z,49.14
2023-04-15T16:28:32.756Z,49.20
2023-04-15T16:31:00.697Z,49.19
2023-04-15T16:33:28.470Z,49.05
2023-04-15T16:35:56.486Z,49.28
2023-04-15T16:38:24.426Z,49.27
2023-04-15T16:40:52.182Z,49.39
2023-04-15T16:43:20.351Z,49.49
2023-04-15T16:45:51.553Z,49.61
2023-04-15T16:48:20.129Z,49.82
2023-04-15T16:50:48.004Z,49.66
2023-04-15T16:53:16.194Z,49.42
2023-04-15T16:55:44.231Z,49.50
2023-04-15T16:58:11.985Z,49.52
2023-04-15T17:00:39.917Z,49.58
2023-04-15T17:03:07.909Z,49.76
2023-04-15T17:05:36.215Z,49.77
2023-04-15T17:08:04.521Z,49.79
2023-04-15T17:10:32.354Z,49.76
2023-04-15T17:13:00.408Z,49.91
2023-04-15T17:15:28.224Z,50.03
2023-04-15T17:17:56.544Z,50.23
2023-04-15T17:20:24.612Z,50.50
2023-04-15T17:22:52.474Z,50.66
2023-04-15T17:25:20.395Z,50.79
2023-04-15T17:27:48.117Z,50.74
2023-04-15T17:30:16.272Z,51.07
2023-04-15T17:32:44.211Z,50.97
2023-04-15T17:35:12.396Z,50.90
2023-04-15T17:37:40.668Z,51.32
2023-04-15T17:40:09.032Z,51.61
2023-04-15T17:42:37.156Z,51.99
2023-04-15T17:45:05.673Z,51.84
2023-04-15T17:47:33.846Z,52.37
2023-04-15T17:50:01.982Z,52.74
2023-04-15T17:52:30.155Z,52.70
2023-04-15T17:54:58.174Z,52.71
2023-04-15T17:57:26.195Z,52.70
2023-04-15T17:59:53.966Z,52.93
2023-04-15T18:02:21.846Z,53.37
2023-04-15T18:04:50.116Z,53.42
2023-04-15T18:07:18.230Z,53.31
2023-04-15T18:09:46.419Z,53.82
2023-04-15T18:12:14.617Z,53.98
2023-04-15T18:14:42.421Z,53.71
2023-04-15T18:17:11.496Z,53.91
2023-04-15T18:19:39.561Z,54.50
2023-04-15T18:22:07.397Z,54.63
2023-04-15T18:24:35.581Z,54.75
2023-04-15T18:27:03.874Z,54.92
2023-04-15T18:29:32.121Z,55.19
2023-04-15T18:32:00.471Z,55.44
2023-04-15T18:34:28.974Z,55.62
2023-04-15T18:36:57.462Z,55.90
2023-04-15T18:39:25.937Z,56.03
2023-04-15T18:41:54.340Z,56.28
2023-04-15T18:44:22.396Z,56.90
2023-04-15T18:46:50.139Z,57.50
2023-04-15T18:49:17.902Z,57.69
2023-04-15T18:51:45.957Z,57.68
2023-04-15T18:54:13.794Z,57.83
2023-04-15T18:56:41.922Z,57.94
2023-04-15T18:59:28.876Z,58.01
2023-04-15T19:02:01.257Z,58.37
2023-04-15T19:04:29.564Z,58.47
2023-04-15T19:06:58.942Z,58.57
2023-04-15T19:09:28.426Z,58.72
2023-04-15T19:11:56.926Z,58.77
2023-04-15T19:14:25.487Z,58.89
2023-04-15T19:16:53.463Z,59.01
2023-04-15T19:19:21.362Z,58.99
2023-04-15T19:21:50.182Z,59.13
2023-04-15T19:24:18.536Z,59.08
2023-04-15T19:26:47.905Z,59.16
2023-04-15T19:29:15.941Z,59.07
2023-04-15T19:31:43.688Z,59.00
2023-04-15T19:34:11.759Z,58.91
2023-04-15T19:36:39.854Z,59.04
2023-04-15T19:39:07.863Z,58.98
2023-04-15T19:41:36.194Z,59.01
2023-04-15T19:44:04.575Z,59.05
2023-04-15T19:46:32.712Z,59.13
2023-04-15T19:49:01.429Z,59.10
2023-04-15T19:51:29.725Z,59.15
2023-04-15T19:53:58.684Z,59.24
2023-04-15T19:56:26.877Z,59.22
2023-04-15T19:58:54.870Z,59.21
2023-04-15T20:01:22.825Z,59.13
2023-04-15T20:03:52.839Z,58.97
2023-04-15T20:06:21.601Z,58.84
2023-04-15T20:08:49.585Z,58.81
2023-04-15T20:11:17.512Z,58.85
2023-04-15T20:13:45.448Z,58.86
2023-04-15T20:16:13.653Z,58.95
2023-04-15T20:18:41.517Z,59.05
2023-04-15T20:21:09.346Z,59.21
2023-04-15T20:23:38.517Z,59.22
2023-04-15T20:26:06.755Z,59.42
2023-04-15T20:28:34.596Z,59.61
2023-04-15T20:31:02.628Z,59.63
2023-04-15T20:33:30.628Z,59.74
2023-04-15T20:35:58.758Z,59.85
2023-04-15T20:38:26.917Z,59.84
2023-04-15T20:40:54.782Z,59.98
2023-04-15T20:43:22.659Z,59.91
2023-04-15T20:45:51.018Z,59.92
2023-04-15T20:48:19.207Z,59.97
2023-04-15T20:50:47.069Z,60.14
2023-04-15T20:53:15.091Z,60.14
2023-04-15T20:55:45.892Z,60.23
2023-04-15T20:58:13.803Z,60.33
2023-04-15T21:00:41.880Z,60.27
2023-04-15T21:03:10.060Z,60.36
2023-04-15T21:05:37.925Z,60.40
2023-04-15T21:08:06.047Z,60.56
2023-04-15T21:10:35.556Z,60.58
2023-04-15T21:13:03.674Z,60.53
2023-04-15T21:15:32.058Z,60.46
2023-04-15T21:17:59.943Z,60.54
2023-04-15T21:20:28.255Z,60.64
2023-04-15T21:22:56.107Z,60.93
2023-04-15T21:25:24.327Z,61.33
2023-04-15T21:27:52.288Z,61.56
2023-04-15T21:30:20.153Z,61.72
2023-04-15T21:32:48.097Z,61.90
2023-04-15T21:35:16.013Z,62.19
2023-04-15T21:37:44.000Z,62.41
2023-04-15T21:40:12.457Z,62.41
2023-04-15T21:42:41.621Z,62.56
2023-04-15T21:45:09.828Z,62.87
2023-04-15T21:47:56.881Z,62.99
2023-04-15T21:50:25.840Z,62.97
2023-04-15T21:52:53.967Z,63.02
2023-04-15T21:55:21.853Z,63.06
2023-04-15T21:57:49.688Z,63.12
2023-04-15T22:00:17.629Z,63.28
2023-04-15T22:02:45.656Z,63.22
2023-04-15T22:05:13.971Z,63.32
2023-04-15T22:07:41.817Z,63.39
2023-04-15T22:10:09.809Z,63.38
2023-04-15T22:12:37.754Z,63.50
2023-04-15T22:15:05.945Z,63.53
2023-04-15T22:17:34.184Z,63.85
2023-04-15T22:20:02.730Z,64.02
2023-04-15T22:22:43.948Z,64.24
2023-04-15T22:25:13.085Z,64.41
2023-04-15T22:27:40.909Z,64.49
2023-04-15T22:30:09.975Z,64.51
2023-04-15T22:32:38.373Z,64.54
2023-04-15T22:35:06.747Z,64.55
2023-04-15T22:37:34.734Z,64.58
2023-04-15T22:40:03.114Z,64.55
2023-04-15T22:42:31.262Z,64.54
2023-04-15T22:44:59.118Z,64.43
2023-04-15T22:47:27.122Z,64.39
2023-04-15T22:49:54.994Z,64.30
2023-04-15T22:52:30.071Z,64.45
2023-04-15T22:54:59.324Z,64.49
2023-04-15T22:57:28.185Z,64.55
2023-04-15T22:59:56.082Z,64.55
2023-04-15T23:02:23.947Z,64.51
2023-04-15T23:04:52.090Z,64.50
2023-04-15T23:07:20.028Z,64.57
2023-04-15T23:09:48.010Z,64.49
2023-04-15T23:12:16.113Z,64.39
2023-04-15T23:14:44.430Z,64.42
2023-04-15T23:17:12.129Z,64.38
2023-04-15T23:19:40.256Z,64.27
2023-04-15T23:22:10.528Z,64.33
2023-04-15T23:24:38.488Z,64.31
2023-04-15T23:27:06.258Z,64.34
2023-04-15T23:29:33.971Z,64.44
2023-04-15T23:32:02.211Z,64.36
2023-04-15T23:34:30.469Z,64.41
2023-04-15T23:36:58.218Z,64.30
2023-04-15T23:39:26.011Z,64.08
2023-04-15T23:41:54.178Z,64.03
2023-04-15T23:44:22.322Z,63.88
2023-04-15T23:46:51.267Z,63.70
2023-04-15T23:49:20.483Z,63.57
2023-04-15T23:51:48.495Z,63.37
2023-04-15T23:54:16.378Z,63.41
2023-04-15T23:56:44.346Z,63.42
2023-04-15T23:59:12.400Z,63.24
